createdAt,value
2023-10-16T06:59:04.351Z,6.19
2023-10-16T07:00:05.426Z,6.27
2023-10-16T07:01:05.637Z,6.25
2023-10-16T07:02:05.569Z,6.25
2023-10-16T07:03:05.722Z,6.19
2023-10-16T07:04:05.899Z,6.25
2023-10-16T07:05:05.858Z,6.28
2023-10-16T07:06:05.937Z,6.33
2023-10-16T07:07:06.005Z,6.37
2023-10-16T07:08:06.077Z,6.46
2023-10-16T07:09:06.128Z,6.49
2023-10-16T07:10:06.239Z,6.52
2023-10-16T07:11:06.332Z,6.51
2023-10-16T07:12:06.335Z,6.54
2023-10-16T07:13:06.480Z,6.56
2023-10-16T07:14:06.533Z,6.62
2023-10-16T07:15:06.595Z,6.64
2023-10-16T07:16:06.764Z,6.62
2023-10-16T07:17:06.743Z,6.67
2023-10-16T07:18:06.915Z,6.64
2023-10-16T07:19:06.954Z,6.64
2023-10-16T07:20:06.985Z,6.66
2023-10-16T07:21:07.061Z,6.70
2023-10-16T07:22:07.151Z,6.74
2023-10-16T07:23:07.215Z,6.76
2023-10-16T07:24:07.270Z,6.80
2023-10-16T07:25:07.424Z,6.85
2023-10-16T07:26:07.466Z,6.81
2023-10-16T07:27:07.551Z,6.81
2023-10-16T07:28:07.636Z,6.85
2023-10-16T07:29:07.686Z,6.87
2023-10-16T07:30:07.807Z,6.91
2023-10-16T07:31:07.901Z,6.97
2023-10-16T07:32:07.905Z,7.03
2023-10-16T07:33:08.075Z,7.05
2023-10-16T07:34:08.124Z,7.12
2023-10-16T07:35:08.149Z,7.15
2023-10-16T07:36:08.235Z,7.15
2023-10-16T07:37:08.355Z,7.25
2023-10-16T07:38:08.365Z,7.39
2023-10-16T07:39:08.492Z,7.46
2023-10-16T07:40:08.540Z,7.52
2023-10-16T07:41:08.631Z,7.53
2023-10-16T07:42:08.692Z,7.57
2023-10-16T07:43:08.773Z,7.52
2023-10-16T07:44:08.884Z,7.52
2023-10-16T07:45:08.915Z,7.64
2023-10-16T07:46:09.055Z,7.61
2023-10-16T07:47:09.101Z,7.71
2023-10-16T07:48:09.220Z,7.74
2023-10-16T07:49:09.226Z,7.72
2023-10-16T07:50:09.264Z,7.68
2023-10-16T07:51:09.381Z,7.60
2023-10-16T07:52:09.456Z,7.53
2023-10-16T07:53:09.518Z,7.45
2023-10-16T07:54:09.597Z,7.46
2023-10-16T07:55:09.724Z,7.45
2023-10-16T07:56:09.814Z,7.42
2023-10-16T07:57:09.911Z,7.43
2023-10-16T07:58:10.036Z,7.49
2023-10-16T07:59:10.344Z,7.53
2023-10-16T08:00:10.127Z,7.68
2023-10-16T08:01:10.318Z,7.83
2023-10-16T08:02:10.311Z,7.92
2023-10-16T08:03:10.436Z,7.97
2023-10-16T08:04:10.550Z,8.02
2023-10-16T08:05:10.522Z,8.10
2023-10-16T08:06:10.661Z,8.18
2023-10-16T08:07:10.773Z,8.16
2023-10-16T08:08:10.796Z,8.02
2023-10-16T08:09:13.200Z,7.90
2023-10-16T08:10:10.973Z,7.92
2023-10-16T08:11:11.075Z,7.95
2023-10-16T08:12:11.236Z,7.85
2023-10-16T08:13:11.214Z,7.79
2023-10-16T08:14:11.274Z,7.83
2023-10-16T08:15:11.329Z,7.86
2023-10-16T08:16:11.506Z,7.90
2023-10-16T08:17:11.611Z,7.95
2023-10-16T08:18:11.815Z,8.00
2023-10-16T08:19:11.756Z,7.93
2023-10-16T08:20:11.734Z,8.00
2023-10-16T08:21:11.817Z,8.15
2023-10-16T08:22:11.985Z,8.30
2023-10-16T08:23:11.968Z,8.41
2023-10-16T08:24:14.106Z,8.41
2023-10-16T08:25:12.160Z,8.30
2023-10-16T08:26:12.183Z,8.22
2023-10-16T08:27:12.250Z,8.25
2023-10-16T08:28:12.310Z,8.11
2023-10-16T08:29:12.391Z,8.07
2023-10-16T08:30:12.457Z,8.16
2023-10-16T08:31:12.617Z,8.23
2023-10-16T08:32:12.650Z,8.26
2023-10-16T08:33:12.734Z,8.28
2023-10-16T08:34:12.825Z,8.22
2023-10-16T08:35:12.892Z,8.19
2023-10-16T08:36:12.959Z,8.22
2023-10-16T08:37:13.044Z,8.23
2023-10-16T08:38:13.111Z,8.26
2023-10-16T08:39:13.199Z,8.29
2023-10-16T08:40:13.286Z,8.40
2023-10-16T08:41:13.310Z,8.62
2023-10-16T08:42:13.394Z,8.73
2023-10-16T08:43:13.511Z,8.81
2023-10-16T08:44:13.570Z,8.99
2023-10-16T08:45:13.630Z,8.99
2023-10-16T08:46:13.788Z,8.86
2023-10-16T08:47:13.777Z,8.91
2023-10-16T08:48:13.900Z,9.08
2023-10-16T08:49:14.009Z,9.24
2023-10-16T08:50:14.047Z,9.20
2023-10-16T08:51:14.122Z,9.43
2023-10-16T08:52:14.217Z,9.84
2023-10-16T08:53:14.315Z,9.93
2023-10-16T08:54:14.427Z,9.90
2023-10-16T08:55:14.504Z,10.04
2023-10-16T08:56:14.588Z,9.60
2023-10-16T08:57:14.667Z,9.47
2023-10-16T08:58:14.741Z,9.20
2023-10-16T08:59:14.836Z,8.89
2023-10-16T09:00:14.959Z,8.71
2023-10-16T09:01:15.058Z,8.62
2023-10-16T09:02:15.060Z,8.70
2023-10-16T09:03:15.254Z,8.83
2023-10-16T09:04:17.967Z,8.86
2023-10-16T09:05:15.333Z,8.91
2023-10-16T09:06:15.402Z,8.92
2023-10-16T09:07:15.489Z,8.95
2023-10-16T09:08:15.555Z,8.94
2023-10-16T09:09:15.714Z,8.99
2023-10-16T09:10:15.766Z,9.04
2023-10-16T09:11:15.821Z,8.98
2023-10-16T09:12:15.882Z,8.95
2023-10-16T09:13:15.980Z,8.96
2023-10-16T09:14:16.046Z,8.92
2023-10-16T09:15:16.133Z,8.81
2023-10-16T09:16:16.236Z,8.89
2023-10-16T09:17:16.260Z,9.01
2023-10-16T09:18:16.351Z,9.08
2023-10-16T09:19:16.435Z,9.17
2023-10-16T09:20:16.544Z,9.24
2023-10-16T09:21:16.620Z,9.29
2023-10-16T09:22:16.713Z,9.29
2023-10-16T09:23:16.771Z,9.39
2023-10-16T09:24:16.882Z,9.32
2023-10-16T09:25:26.183Z,9.21
2023-10-16T09:26:17.083Z,9.24
2023-10-16T09:27:17.081Z,9.26
2023-10-16T09:28:17.168Z,9.26
2023-10-16T09:29:17.239Z,9.46
2023-10-16T09:30:17.442Z,9.69
2023-10-16T09:31:17.470Z,9.78
2023-10-16T09:32:17.594Z,9.91
2023-10-16T09:33:17.632Z,10.02
2023-10-16T09:34:17.635Z,10.25
2023-10-16T09:35:17.745Z,10.25
2023-10-16T09:36:17.801Z,10.22
2023-10-16T09:37:17.876Z,10.33
2023-10-16T09:38:17.976Z,10.40
2023-10-16T09:39:18.107Z,10.29
2023-10-16T09:40:24.348Z,10.30
2023-10-16T09:41:18.220Z,10.33
2023-10-16T09:42:18.301Z,10.36
2023-10-16T09:43:18.390Z,10.25
2023-10-16T09:44:18.491Z,10.05
2023-10-16T09:45:18.582Z,10.14
2023-10-16T09:46:18.815Z,10.15
2023-10-16T09:47:18.714Z,10.12
2023-10-16T09:48:18.812Z,10.22
2023-10-16T09:49:18.852Z,10.32
2023-10-16T09:50:18.976Z,10.61
2023-10-16T09:51:19.016Z,10.29
2023-10-16T09:52:19.142Z,10.30
2023-10-16T09:53:19.256Z,10.33
2023-10-16T09:54:19.293Z,10.27
2023-10-16T09:55:19.383Z,10.23
2023-10-16T09:56:19.489Z,9.99
2023-10-16T09:57:20.281Z,10.17
2023-10-16T09:58:19.619Z,10.38
2023-10-16T09:59:19.681Z,10.71
2023-10-16T10:00:19.824Z,11.06
2023-10-16T10:01:19.908Z,11.46
2023-10-16T10:02:19.953Z,12.04
2023-10-16T10:03:20.053Z,12.05
2023-10-16T10:04:20.184Z,11.52
2023-10-16T10:05:20.160Z,11.32
2023-10-16T10:06:20.240Z,10.94
2023-10-16T10:07:20.288Z,10.84
2023-10-16T10:08:20.396Z,10.82
2023-10-16T10:09:20.457Z,10.88
2023-10-16T10:10:20.583Z,10.82
2023-10-16T10:11:28.756Z,10.84
2023-10-16T10:12:20.717Z,10.47
2023-10-16T10:13:20.787Z,10.04
2023-10-16T10:14:20.856Z,9.89
2023-10-16T10:15:20.985Z,9.94
2023-10-16T10:16:21.109Z,10.05
2023-10-16T10:17:21.196Z,10.01
2023-10-16T10:18:21.199Z,10.12
2023-10-16T10:19:21.303Z,10.25
2023-10-16T10:20:21.317Z,10.45
2023-10-16T10:21:21.441Z,10.71
2023-10-16T10:22:21.506Z,10.81
2023-10-16T10:23:21.603Z,10.84
2023-10-16T10:24:21.705Z,10.86
2023-10-16T10:25:21.811Z,10.71
2023-10-16T10:26:21.858Z,10.94
2023-10-16T10:27:21.962Z,11.15
2023-10-16T10:28:22.046Z,11.28
2023-10-16T10:29:22.151Z,11.32
2023-10-16T10:30:22.229Z,11.24
2023-10-16T10:31:22.292Z,11.36
2023-10-16T10:32:22.339Z,11.51
2023-10-16T10:33:22.431Z,11.60
2023-10-16T10:34:22.525Z,11.64
2023-10-16T10:35:22.621Z,11.69
2023-10-16T10:36:22.666Z,11.70
2023-10-16T10:37:22.830Z,11.65
2023-10-16T10:38:22.864Z,11.69
2023-10-16T10:39:23.400Z,11.75
2023-10-16T10:40:23.507Z,11.78
2023-10-16T10:41:23.123Z,11.37
2023-10-16T10:42:23.189Z,11.19
2023-10-16T10:43:23.272Z,10.89
2023-10-16T10:44:23.386Z,10.94
2023-10-16T10:45:23.506Z,10.96
2023-10-16T10:46:23.800Z,11.21
2023-10-16T10:47:23.606Z,11.43
2023-10-16T10:48:23.697Z,11.55
2023-10-16T10:49:23.829Z,11.43
2023-10-16T10:50:23.862Z,11.49
2023-10-16T10:51:23.917Z,11.58
2023-10-16T10:52:24.026Z,11.72
2023-10-16T10:53:24.083Z,11.67
2023-10-16T10:54:24.203Z,11.49
2023-10-16T10:55:24.256Z,11.55
2023-10-16T10:56:24.318Z,11.64
2023-10-16T10:57:24.381Z,11.80
2023-10-16T10:58:24.462Z,11.61
2023-10-16T10:59:24.545Z,11.72
2023-10-16T11:00:24.650Z,11.86
2023-10-16T11:01:24.788Z,12.02
2023-10-16T11:02:24.800Z,11.96
2023-10-16T11:03:24.898Z,11.46
2023-10-16T11:04:25.078Z,11.65
2023-10-16T11:05:25.058Z,11.65
2023-10-16T11:06:25.111Z,11.75
2023-10-16T11:07:25.222Z,11.72
2023-10-16T11:08:25.245Z,11.86
2023-10-16T11:09:25.302Z,11.95
2023-10-16T11:10:25.413Z,11.98
2023-10-16T11:11:25.478Z,11.75
2023-10-16T11:12:25.662Z,11.46
2023-10-16T11:13:25.656Z,11.58
2023-10-16T11:14:25.977Z,11.49
2023-10-16T11:15:25.838Z,11.42
2023-10-16T11:16:25.972Z,11.33
2023-10-16T11:17:26.072Z,11.22
2023-10-16T11:18:26.187Z,11.07
2023-10-16T11:19:26.260Z,11.17
2023-10-16T11:20:26.238Z,11.35
2023-10-16T11:21:26.300Z,11.39
2023-10-16T11:22:26.382Z,11.49
2023-10-16T11:23:26.432Z,11.40
2023-10-16T11:24:26.861Z,11.40
2023-10-16T11:25:26.694Z,11.57
2023-10-16T11:26:26.698Z,11.82
2023-10-16T11:27:26.811Z,11.98
2023-10-16T11:28:26.869Z,12.14
2023-10-16T11:29:26.971Z,12.35
2023-10-16T11:30:27.063Z,12.42
2023-10-16T11:31:27.272Z,12.64
2023-10-16T11:32:27.735Z,12.75
2023-10-16T11:33:27.302Z,12.85
2023-10-16T11:34:27.418Z,12.75
2023-10-16T11:35:27.469Z,12.23
2023-10-16T11:36:29.184Z,12.42
2023-10-16T11:37:27.656Z,12.70
2023-10-16T11:38:27.740Z,12.47
2023-10-16T11:39:27.800Z,12.10
2023-10-16T11:40:27.887Z,11.73
2023-10-16T11:41:27.992Z,11.96
2023-10-16T11:42:28.096Z,12.27
2023-10-16T11:43:28.190Z,12.28
2023-10-16T11:44:28.476Z,12.35
2023-10-16T11:45:28.317Z,12.59
2023-10-16T11:46:28.481Z,12.82
2023-10-16T11:47:28.529Z,12.83
2023-10-16T11:48:28.627Z,12.83
2023-10-16T11:49:28.691Z,12.79
2023-10-16T11:50:28.754Z,12.97
2023-10-16T11:51:28.822Z,13.20
2023-10-16T11:52:28.969Z,13.38
2023-10-16T11:53:28.988Z,13.28
2023-10-16T11:54:29.265Z,13.20
2023-10-16T11:55:29.186Z,13.17
2023-10-16T11:56:29.261Z,13.22
2023-10-16T11:57:29.384Z,13.22
2023-10-16T11:58:29.442Z,13.10
2023-10-16T11:59:30.087Z,13.00
2023-10-16T12:00:29.582Z,12.77
2023-10-16T12:01:37.997Z,12.64
2023-10-16T12:03:29.857Z,12.28
2023-10-16T12:04:30.426Z,12.19
2023-10-16T12:05:29.983Z,12.14
2023-10-16T12:06:30.096Z,12.20
2023-10-16T12:07:30.185Z,12.37
2023-10-16T12:08:30.248Z,12.45
2023-10-16T12:09:30.303Z,12.60
2023-10-16T12:10:30.404Z,12.90
2023-10-16T12:11:30.459Z,13.10
2023-10-16T12:12:30.581Z,12.77
2023-10-16T12:13:30.688Z,12.93
2023-10-16T12:14:30.900Z,13.19
2023-10-16T12:15:30.819Z,13.22
2023-10-16T12:16:35.814Z,13.29
2023-10-16T12:17:30.993Z,13.30
2023-10-16T12:18:31.057Z,13.15
2023-10-16T12:19:31.178Z,12.89
2023-10-16T12:20:31.227Z,12.78
2023-10-16T12:21:31.282Z,12.83
2023-10-16T12:22:31.390Z,12.89
2023-10-16T12:23:31.476Z,12.90
2023-10-16T12:24:31.587Z,12.87
2023-10-16T12:25:31.648Z,12.83
2023-10-16T12:26:31.758Z,12.71
2023-10-16T12:27:31.833Z,12.59
2023-10-16T12:28:31.940Z,12.49
2023-10-16T12:29:32.014Z,12.37
2023-10-16T12:30:32.103Z,12.27
2023-10-16T12:31:32.197Z,12.19
2023-10-16T12:32:32.276Z,12.13
2023-10-16T12:33:32.370Z,12.10
2023-10-16T12:34:32.442Z,12.20
2023-10-16T12:35:32.529Z,12.20
2023-10-16T12:36:32.623Z,12.23
2023-10-16T12:37:32.690Z,12.20
2023-10-16T12:38:32.793Z,12.16
2023-10-16T12:39:32.881Z,12.27
2023-10-16T12:40:32.958Z,12.31
2023-10-16T12:41:33.100Z,12.41
2023-10-16T12:42:33.177Z,12.42
2023-10-16T12:43:33.207Z,12.49
2023-10-16T12:44:33.313Z,12.54
2023-10-16T12:45:33.436Z,12.60
2023-10-16T12:46:33.456Z,12.67
2023-10-16T12:47:43.912Z,12.83
2023-10-16T12:48:33.704Z,13.00
2023-10-16T12:49:33.676Z,13.17
2023-10-16T12:50:33.733Z,13.39
2023-10-16T12:51:33.872Z,13.10
2023-10-16T12:52:33.918Z,13.15
2023-10-16T12:53:33.962Z,13.15
2023-10-16T12:54:34.176Z,13.36
2023-10-16T12:55:34.148Z,13.57
2023-10-16T12:56:34.229Z,13.79
2023-10-16T12:57:34.303Z,13.92
2023-10-16T12:58:34.379Z,13.89
2023-10-16T12:59:34.482Z,13.99
2023-10-16T13:00:34.630Z,14.09
2023-10-16T13:01:34.653Z,13.84
2023-10-16T13:02:34.785Z,13.66
2023-10-16T13:03:35.365Z,13.81
2023-10-16T13:04:35.007Z,13.99
2023-10-16T13:05:35.011Z,13.96
2023-10-16T13:06:35.077Z,13.79
2023-10-16T13:07:42.336Z,13.45
2023-10-16T13:08:35.266Z,13.28
2023-10-16T13:09:35.307Z,13.03
2023-10-16T13:10:35.393Z,13.19
2023-10-16T13:11:35.460Z,13.44
2023-10-16T13:12:35.553Z,13.64
2023-10-16T13:13:35.592Z,13.88
2023-10-16T13:14:35.714Z,14.12
2023-10-16T13:15:35.796Z,13.95
2023-10-16T13:16:35.849Z,13.64
2023-10-16T13:17:35.980Z,13.67
2023-10-16T13:18:36.026Z,13.77
2023-10-16T13:19:36.074Z,13.85
2023-10-16T13:20:36.201Z,13.91
2023-10-16T13:21:36.461Z,13.78
2023-10-16T13:22:36.342Z,13.85
2023-10-16T13:23:46.154Z,13.88
2023-10-16T13:24:36.587Z,13.84
2023-10-16T13:25:36.626Z,13.79
2023-10-16T13:26:36.730Z,13.70
2023-10-16T13:27:36.819Z,13.55
2023-10-16T13:28:36.901Z,13.49
2023-10-16T13:29:36.956Z,13.54
2023-10-16T13:30:37.166Z,13.46
2023-10-16T13:31:37.140Z,13.42
2023-10-16T13:32:37.260Z,13.39
2023-10-16T13:33:37.321Z,13.33
2023-10-16T13:34:37.400Z,13.36
2023-10-16T13:35:37.421Z,13.22
2023-10-16T13:36:37.744Z,13.07
2023-10-16T13:37:37.607Z,13.11
2023-10-16T13:38:37.683Z,13.10
2023-10-16T13:39:37.797Z,13.03
2023-10-16T13:40:37.878Z,13.10
2023-10-16T13:41:38.361Z,13.15
2023-10-16T13:42:38.161Z,13.11
2023-10-16T13:43:38.163Z,12.86
2023-10-16T13:44:38.249Z,12.65
2023-10-16T13:45:38.332Z,12.64
2023-10-16T13:46:38.517Z,12.64
2023-10-16T13:47:38.520Z,12.59
2023-10-16T13:48:38.605Z,12.64
2023-10-16T13:49:38.772Z,12.62
2023-10-16T13:50:38.727Z,12.71
2023-10-16T13:51:38.933Z,12.71
2023-10-16T13:52:38.887Z,12.77
2023-10-16T13:53:38.972Z,12.83
2023-10-16T13:54:39.034Z,12.89
2023-10-16T13:55:39.105Z,12.75
2023-10-16T13:56:39.214Z,12.71
2023-10-16T13:57:39.282Z,12.60
2023-10-16T13:58:39.352Z,12.60
2023-10-16T13:59:39.435Z,12.56
2023-10-16T14:00:39.833Z,12.41
2023-10-16T14:01:39.670Z,12.27
2023-10-16T14:02:39.783Z,12.34
2023-10-16T14:03:39.857Z,12.37
2023-10-16T14:04:39.915Z,12.46
2023-10-16T14:05:40.075Z,12.50
2023-10-16T14:06:40.107Z,12.56
2023-10-16T14:07:40.128Z,12.53
2023-10-16T14:08:40.214Z,12.59
2023-10-16T14:09:40.332Z,12.64
2023-10-16T14:10:40.421Z,12.62
2023-10-16T14:11:40.531Z,12.64
2023-10-16T14:12:40.576Z,12.67
2023-10-16T14:13:40.641Z,12.65
2023-10-16T14:14:40.714Z,12.57
2023-10-16T14:15:40.853Z,12.52
2023-10-16T14:16:40.945Z,12.41
2023-10-16T14:17:40.988Z,12.39
2023-10-16T14:18:41.049Z,12.37
2023-10-16T14:19:41.133Z,12.28
2023-10-16T14:20:41.218Z,12.17
2023-10-16T14:21:41.348Z,12.07
2023-10-16T14:22:41.376Z,11.99
2023-10-16T14:23:41.450Z,12.04
2023-10-16T14:24:41.533Z,12.13
2023-10-16T14:25:41.592Z,12.20
2023-10-16T14:26:41.683Z,12.27
2023-10-16T14:27:41.773Z,12.29
2023-10-16T14:28:41.852Z,12.32
2023-10-16T14:29:41.954Z,12.31
2023-10-16T14:30:49.183Z,12.27
2023-10-16T14:31:42.233Z,12.14
2023-10-16T14:32:42.185Z,12.12
2023-10-16T14:33:42.321Z,12.12
2023-10-16T14:34:42.340Z,12.10
2023-10-16T14:35:42.404Z,12.12
2023-10-16T14:36:42.492Z,12.10
2023-10-16T14:37:42.643Z,12.09
2023-10-16T14:38:42.688Z,12.09
2023-10-16T14:39:42.740Z,12.02
2023-10-16T14:40:42.820Z,12.05
2023-10-16T14:41:42.901Z,12.12
2023-10-16T14:42:42.998Z,12.14
2023-10-16T14:43:43.073Z,12.07
2023-10-16T14:44:43.175Z,12.04
2023-10-16T14:45:43.285Z,11.96
2023-10-16T14:46:43.384Z,11.95
2023-10-16T14:47:43.503Z,11.91
2023-10-16T14:48:43.657Z,11.94
2023-10-16T14:49:43.652Z,11.94
2023-10-16T14:50:43.689Z,11.90
2023-10-16T14:51:43.800Z,11.95
2023-10-16T14:52:43.836Z,12.04
2023-10-16T14:53:43.919Z,12.02
2023-10-16T14:54:44.061Z,12.05
2023-10-16T14:55:44.133Z,12.04
2023-10-16T14:56:44.167Z,12.13
2023-10-16T14:58:00.251Z,12.13
2023-10-16T14:59:14.212Z,12.13
2023-10-16T14:59:44.418Z,12.14
2023-10-16T15:00:44.514Z,12.19
2023-10-16T15:01:44.740Z,12.17
2023-10-16T15:02:44.703Z,12.16
2023-10-16T15:03:44.881Z,12.14
2023-10-16T15:04:46.222Z,12.09
2023-10-16T15:05:44.907Z,12.10
2023-10-16T15:06:45.023Z,12.05
2023-10-16T15:07:45.036Z,12.04
2023-10-16T15:08:45.123Z,12.07
2023-10-16T15:09:45.246Z,12.07
2023-10-16T15:10:53.314Z,12.07
2023-10-16T15:11:45.375Z,12.12
2023-10-16T15:12:45.483Z,12.10
2023-10-16T15:13:45.544Z,12.14
2023-10-16T15:14:45.652Z,12.20
2023-10-16T15:15:45.798Z,12.29
2023-10-16T15:16:45.799Z,12.31
2023-10-16T15:17:45.981Z,12.17
2023-10-16T15:18:46.029Z,12.05
2023-10-16T15:19:46.051Z,11.99
2023-10-16T15:20:46.126Z,11.99
2023-10-16T15:21:46.235Z,11.94
2023-10-16T15:22:46.305Z,11.90
2023-10-16T15:23:46.404Z,11.94
2023-10-16T15:24:46.486Z,11.90
2023-10-16T15:25:46.575Z,11.88
2023-10-16T15:26:46.616Z,11.90
2023-10-16T15:27:46.711Z,11.86
2023-10-16T15:28:46.947Z,11.91
2023-10-16T15:29:46.886Z,11.90
2023-10-16T15:30:47.011Z,11.83
2023-10-16T15:31:47.194Z,11.79
2023-10-16T15:32:47.235Z,11.73
2023-10-16T15:33:47.244Z,11.69
2023-10-16T15:34:47.296Z,11.64
2023-10-16T15:35:47.367Z,11.61
2023-10-16T15:36:47.492Z,11.58
2023-10-16T15:37:47.520Z,11.55
2023-10-16T15:38:47.608Z,11.55
2023-10-16T15:39:47.706Z,11.54
2023-10-16T15:40:47.789Z,11.54
2023-10-16T15:41:47.864Z,11.52
2023-10-16T15:42:48.005Z,11.49
2023-10-16T15:43:52.477Z,11.49
2023-10-16T15:44:48.123Z,11.44
2023-10-16T15:45:48.273Z,11.40
2023-10-16T15:46:48.334Z,11.39
2023-10-16T15:47:48.374Z,11.37
2023-10-16T15:48:48.492Z,11.33
2023-10-16T15:49:48.532Z,11.29
2023-10-16T15:50:48.803Z,11.29
2023-10-16T15:51:48.782Z,11.28
2023-10-16T15:52:48.806Z,11.25
2023-10-16T15:53:48.889Z,11.22
2023-10-16T15:54:49.004Z,11.17
2023-10-16T15:55:49.078Z,11.11
2023-10-16T15:56:49.185Z,11.06
2023-10-16T15:57:49.248Z,11.03
2023-10-16T15:58:49.333Z,10.97
2023-10-16T15:59:49.384Z,10.91
2023-10-16T16:00:49.633Z,10.86
2023-10-16T16:01:49.720Z,10.81
2023-10-16T16:02:49.692Z,10.76
2023-10-16T16:03:49.802Z,10.70
2023-10-16T16:04:49.859Z,10.66
2023-10-16T16:05:49.898Z,10.60
2023-10-16T16:06:49.989Z,10.53
2023-10-16T16:07:50.055Z,10.45
2023-10-16T16:08:50.154Z,10.41
2023-10-16T16:09:50.239Z,10.34
2023-10-16T16:10:50.348Z,10.29
2023-10-16T16:11:50.358Z,10.22
2023-10-16T16:12:50.567Z,10.15
2023-10-16T16:13:50.564Z,10.09
2023-10-16T16:14:50.592Z,10.04
2023-10-16T16:15:50.680Z,9.99
2023-10-16T16:16:50.747Z,9.93
2023-10-16T16:17:50.815Z,9.87
2023-10-16T16:18:50.921Z,9.84
2023-10-16T16:19:50.963Z,9.79
2023-10-16T16:20:51.037Z,9.75
2023-10-16T16:21:51.143Z,9.71
2023-10-16T16:22:51.230Z,9.68
2023-10-16T16:23:51.311Z,9.65
2023-10-16T16:24:51.457Z,9.56
2023-10-16T16:25:51.459Z,9.50
2023-10-16T16:26:51.560Z,9.43
2023-10-16T16:27:51.619Z,9.40
2023-10-16T16:28:51.792Z,9.36
2023-10-16T16:29:51.785Z,9.29
2023-10-16T16:30:51.824Z,9.23
2023-10-16T16:31:51.909Z,9.20
2023-10-16T16:32:52.006Z,9.13
2023-10-16T16:33:52.037Z,9.10
2023-10-16T16:34:52.150Z,9.10
2023-10-16T16:35:52.282Z,9.08
2023-10-16T16:36:52.308Z,9.10
2023-10-16T16:37:52.364Z,9.10
2023-10-16T16:38:52.508Z,9.10
2023-10-16T16:39:52.555Z,9.08
2023-10-16T16:40:52.640Z,9.04
2023-10-16T16:41:52.732Z,9.01
2023-10-16T16:42:52.787Z,8.99
2023-10-16T16:43:52.864Z,8.94
2023-10-16T16:44:53.039Z,8.89
2023-10-16T16:45:53.063Z,8.83
2023-10-16T16:46:53.107Z,8.79
2023-10-16T16:47:53.227Z,8.76
2023-10-16T16:48:53.284Z,8.73
2023-10-16T16:49:53.336Z,8.70
2023-10-16T16:50:53.386Z,8.65
2023-10-16T16:51:53.470Z,8.66
2023-10-16T16:52:53.550Z,8.62
2023-10-16T16:53:53.654Z,8.61
2023-10-16T16:54:53.697Z,8.61
2023-10-16T16:55:53.794Z,8.59
2023-10-16T16:56:53.857Z,8.58
2023-10-16T16:57:53.925Z,8.55
